Terminal Aerodrome Forecast
Issued by NWS

Home | Current Version | Previous Version | Text Only | Print | Product List | Glossary Off
Versions: 1 2 3 4 5 6 7 8 9 10 11 12 13 14 15 16 17 18

000
FTUS43 KICT 092300
TAFHUT
TAF
KHUT 092336Z 1000/1024 17009KT P6SM SCT100
     FM100700 14013KT P6SM VCTS SCT050 OVC090CB
     FM101200 14014G20KT P6SM SCT080 BKN150
     FM101700 16018G26KT P6SM SCT150=

USA.gov is the U.S. government's official web portal to all federal, state and local government web resources and services.